Date,TemperatureHighF,TemperatureAvgF,TemperatureLowF,DewpointHighF,DewpointAvgF,DewpointLowF,HumidityHigh,HumidityAvg,HumidityLow,PressureMaxIn,PressureMinIn,WindSpeedMaxMPH,WindSpeedAvgMPH,GustSpeedMaxMPH,PrecipitationSumIn
2013-5-26,54,48,43,45,43,42,99,86,66,30.67,30.57,10,2,20,0.01
2013-5-27,77,57,37,49,44,37,99,70,31,30.74,30.63,6,1,14,0.00
2013-5-28,83,60,38,56,49,38,99,73,32,30.81,30.71,5,1,10,0.13
2013-5-29,76,64,56,75,63,56,99,99,91,30.75,30.55,4,0,10,0.76
2013-5-30,93,77,60,79,70,59,99,84,59,30.66,30.57,5,1,11,0.00
2013-5-31,99,81,62,81,72,62,99,78,46,30.67,30.50,4,1,9,0.02
2013-6-1,98,80,60,81,71,60,99,78,44,30.55,30.41,5,1,13,0.00
2013-6-2,93,79,68,79,73,68,99,85,52,30.45,30.30,10,1,21,0.00
2013-6-18,61,60,58,61,60,58,99,99,99,30.51,30.48,2,0,4,0.37
2013-6-19,83,59,50,60,55,49,99,89,45,30.73,30.48,4,0,5,0.12
2013-6-20,86,67,46,64,56,45,99,75,39,30.83,30.72,5,0,11,0.00
2013-6-21,90,72,56,73,65,56,99,82,50,30.82,30.75,7,1,9,0.00
2013-6-22,91,74,57,75,66,57,99,80,48,30.79,30.66,4,0,12,0.05
2013-6-23,94,76,61,82,71,60,99,86,65,30.72,30.60,8,1,11,0.00
2013-6-26,88,79,69,80,75,68,99,89,71,30.42,30.32,3,1,8,0.00
2013-6-27,78,69,64,77,68,64,99,99,95,30.43,30.31,4,1,8,0.02
2013-6-28,86,71,60,84,70,60,99,98,84,30.32,30.05,7,1,13,0.48
2013-6-29,89,77,68,81,74,67,99,92,69,30.29,30.07,8,1,18,0.00
2013-6-30,90,77,66,81,74,65,99,92,68,30.50,30.28,5,1,9,0.00
2013-7-1,85,75,71,83,75,71,99,99,93,30.64,30.49,4,0,9,0.43
2013-7-2,89,77,66,84,76,65,99,96,82,30.76,30.63,49,0,49,0.31
2013-7-3,94,77,63,85,74,63,99,92,69,30.78,30.69,7,1,13,1.51
2013-7-4,99,84,71,86,79,-35,99,88,65,30.77,30.66,6,1,11,0.00
2013-7-5,99,86,74,86,80,46,99,86,35,30.73,30.59,13,1,13,0.00
2013-7-6,96,82,70,86,78,67,99,89,64,30.65,30.55,51,1,51,3.02
2013-7-7,98,81,69,86,76,40,99,88,66,30.60,30.50,4,0,103,24.19
2013-7-19,99,88,82,86,84,82,99,89,62,30.33,30.28,5,1,12,0.06
2013-7-20,97,83,72,89,80,70,99,91,69,30.39,30.22,6,0,13,0.00
2013-7-21,94,77,66,78,71,66,99,84,53,30.52,30.38,4,1,8,0.00